Airfield :
LOGIN :

Register | Disclaimer

   EN    FR    IT 

 










Legend :    VFR   Marginal VFR   IFR   Intensive IFR   Very Intensive IFR
Visi :
Ceiling :
>= 8 km
>= 3000ft
5 to 8 km
1000 to 3000 ft
1500m to 5 km
500 to 1000 ft
800 to 1500m
200 to 500 ft
< 800m
< 200 ft
Symbols :   Thunderstorms  Fog  Heavy snow  Heavy precipitations  Wind > 20 kt
SIGMETs :     Misc.  Thunderstorms  Icing  Turbulence  Mountain Waves  Volcanic Ashes






- Airport Elevation : 256 ft
- IATA code : CFR


LFRK - Caen

CURRENT METAR :
  • 241000Z AUTO 12004KT 100V160 5000 BR OVC006 00/M00 Q1023 TEMPO BKN003

EXPIRED METARs :
  • 240930Z AUTO 08004KT 020V140 4400 BR OVC005 00/M00 Q1023 NOSIG
  • 240900Z AUTO 14007KT 4100 BR OVC005 00/M00 Q1023 NOSIG
  • 240830Z AUTO 12007KT 3900 BR OVC005 00/M00 Q1023 NOSIG
  • 240800Z AUTO 13007KT 4100 BR OVC005 00/M01 Q1023 NOSIG
  • 240730Z AUTO 09005KT 060V130 5000 BR OVC005 00/M01 Q1023 NOSIG
  • 240700Z AUTO 12007KT 5000 BR OVC005 00/M01 Q1022 NOSIG

TAF TAF LFRK
Valid from the 24 at 09:00 until the 24 at 18:00 UTC


240800Z 2409/2418 VRB05KT 6000 OVC006
TEMPO 2409/2412 3000 BR BKN003
PROB30
TEMPO 2413/2418 SCT010
Met : +33 2 31 26 68 11



MET'MAP, your aeronautical weather chart ! - Copyright ORBIFLY December 2007 - Disclaimer

ORBIFLY MET'MAP TEAM :

Programming & Development : Alexandra Zaïnal
Concept & original design : Baudouin d'Aumeries
Assistance for programming : Marc-Olivier Méhu
Technical & hardware support : Manuel Goepfert

Contact : metmap@orbifly.com




SOURCES & CREDITS :

   NOAA